createdAt,value
2019-03-20T00:00:04.537Z,13.30
2019-03-20T00:00:35.793Z,12.93
2019-03-20T00:01:08.045Z,13.72
2019-03-20T00:01:43.621Z,13.55
2019-03-20T00:02:12.314Z,13.55
2019-03-20T00:02:43.894Z,13.25
2019-03-20T00:03:15.134Z,12.90
2019-03-20T00:03:46.383Z,12.37
2019-03-20T00:04:17.587Z,12.63
2019-03-20T00:04:49.946Z,13.00
2019-03-20T00:05:21.485Z,13.70
2019-03-20T00:05:52.712Z,13.85
2019-03-20T00:06:24.879Z,13.58
2019-03-20T00:06:56.086Z,13.00
2019-03-20T00:07:27.304Z,13.38
2019-03-20T00:07:58.586Z,15.45
2019-03-20T00:08:29.790Z,16.10
2019-03-20T00:09:01.030Z,14.70
2019-03-20T00:09:32.225Z,13.80
2019-03-20T00:10:03.438Z,14.28
2019-03-20T00:10:34.638Z,14.15
2019-03-20T00:11:05.842Z,14.65
2019-03-20T00:11:37.050Z,14.65
2019-03-20T00:12:08.264Z,14.58
2019-03-20T00:12:39.521Z,14.87
2019-03-20T00:13:10.727Z,15.00
2019-03-20T00:13:41.934Z,15.78
2019-03-20T00:14:13.141Z,15.23
2019-03-20T00:14:44.359Z,16.40
2019-03-20T00:15:15.554Z,16.75
2019-03-20T00:15:46.773Z,16.50
2019-03-20T00:16:18.002Z,16.25
2019-03-20T00:16:49.217Z,17.17
2019-03-20T00:17:20.469Z,16.10
2019-03-20T00:17:51.682Z,15.93
2019-03-20T00:18:22.893Z,16.90
2019-03-20T00:18:54.088Z,16.42
2019-03-20T00:19:25.293Z,16.62
2019-03-20T00:19:56.502Z,17.62
2019-03-20T00:20:27.706Z,16.97
2019-03-20T00:20:58.912Z,16.65
2019-03-20T00:21:30.119Z,17.50
2019-03-20T00:22:01.318Z,16.97
2019-03-20T00:22:32.614Z,16.77
2019-03-20T00:23:03.852Z,16.02
2019-03-20T00:23:35.096Z,16.48
2019-03-20T00:24:06.314Z,16.90
2019-03-20T00:24:37.553Z,17.17
2019-03-20T00:25:08.766Z,17.57
2019-03-20T00:25:39.981Z,16.75
2019-03-20T00:26:11.189Z,16.97
2019-03-20T00:26:42.405Z,17.57
2019-03-20T00:27:13.608Z,17.12
2019-03-20T00:27:44.895Z,17.12
2019-03-20T00:28:16.099Z,16.45
2019-03-20T00:28:47.310Z,17.25
2019-03-20T00:29:18.509Z,17.30
2019-03-20T00:29:49.731Z,17.65
2019-03-20T00:30:20.973Z,17.87
2019-03-20T00:30:52.210Z,17.73
2019-03-20T00:31:23.418Z,18.70
2019-03-20T00:31:54.630Z,17.85
2019-03-20T00:32:25.840Z,19.30
2019-03-20T00:32:57.116Z,19.42
2019-03-20T00:33:28.327Z,19.15
2019-03-20T00:33:59.528Z,19.10
2019-03-20T00:34:30.732Z,21.07
2019-03-20T00:35:01.944Z,20.57
2019-03-20T00:35:33.210Z,20.35
2019-03-20T00:36:04.418Z,19.32
2019-03-20T00:36:35.622Z,19.52
2019-03-20T00:37:06.830Z,20.25
2019-03-20T00:37:38.075Z,19.07
2019-03-20T00:38:09.320Z,18.40
2019-03-20T00:38:40.514Z,18.30
2019-03-20T00:39:11.732Z,18.07
2019-03-20T00:39:42.937Z,17.55
2019-03-20T00:40:14.141Z,19.50
2019-03-20T00:40:45.382Z,18.42
2019-03-20T00:41:16.584Z,19.37
2019-03-20T00:41:48.640Z,19.75
2019-03-20T00:42:19.855Z,17.60
2019-03-20T00:42:51.081Z,17.23
2019-03-20T00:43:22.283Z,17.60
2019-03-20T00:43:53.500Z,16.65
2019-03-20T00:44:24.750Z,16.90
2019-03-20T00:44:55.955Z,16.23
2019-03-20T00:45:27.167Z,16.02
2019-03-20T00:45:58.376Z,16.45
2019-03-20T00:46:29.606Z,16.60
2019-03-20T00:47:00.822Z,16.17
2019-03-20T00:47:32.027Z,17.98
2019-03-20T00:48:03.292Z,16.90
2019-03-20T00:48:34.510Z,16.37
2019-03-20T00:49:05.707Z,16.25
2019-03-20T00:49:36.918Z,16.65
2019-03-20T00:50:08.148Z,17.20
2019-03-20T00:50:39.340Z,16.85
2019-03-20T00:51:10.530Z,17.23
2019-03-20T00:51:41.740Z,17.20
2019-03-20T00:52:12.946Z,16.67
2019-03-20T00:52:44.168Z,18.10
2019-03-20T00:53:15.432Z,17.12
2019-03-20T00:53:46.628Z,16.80
2019-03-20T00:54:17.847Z,16.02
2019-03-20T00:54:49.054Z,16.05
2019-03-20T00:55:20.271Z,18.17
2019-03-20T00:55:51.462Z,17.48
2019-03-20T00:56:22.661Z,17.23
2019-03-20T00:56:53.870Z,18.02
2019-03-20T00:57:25.072Z,18.05
2019-03-20T00:57:56.285Z,18.90
2019-03-20T00:58:27.551Z,17.23
2019-03-20T00:58:58.759Z,17.92
2019-03-20T00:59:29.968Z,17.32
2019-03-20T01:00:01.187Z,18.02
2019-03-20T01:00:32.390Z,18.57
2019-03-20T01:01:03.592Z,19.05
2019-03-20T01:01:34.808Z,17.42
2019-03-20T01:02:06.005Z,17.45
2019-03-20T01:02:37.198Z,17.27
2019-03-20T01:03:08.478Z,16.85
2019-03-20T01:03:39.687Z,17.52
2019-03-20T01:04:10.920Z,17.80
2019-03-20T01:04:42.122Z,18.02
2019-03-20T01:05:13.380Z,18.17
2019-03-20T01:05:44.583Z,17.32
2019-03-20T01:06:15.784Z,17.92
2019-03-20T01:06:46.990Z,18.45
2019-03-20T01:07:18.193Z,17.30
2019-03-20T01:07:49.460Z,16.95
2019-03-20T01:08:20.661Z,17.60
2019-03-20T01:08:51.858Z,18.48
2019-03-20T01:09:23.058Z,17.62
2019-03-20T01:09:54.261Z,17.00
2019-03-20T01:10:25.471Z,17.20
2019-03-20T01:10:56.705Z,18.27
2019-03-20T01:11:27.898Z,16.67
2019-03-20T01:11:59.106Z,17.25
2019-03-20T01:12:30.302Z,16.93
2019-03-20T01:13:01.514Z,17.25
2019-03-20T01:13:32.727Z,16.30
2019-03-20T01:14:03.933Z,16.75
2019-03-20T01:14:35.139Z,16.45
2019-03-20T01:15:06.340Z,15.70
2019-03-20T01:15:37.560Z,15.75
2019-03-20T01:16:08.778Z,15.63
2019-03-20T01:16:39.990Z,15.63
2019-03-20T01:17:11.240Z,15.85
2019-03-20T01:17:42.457Z,16.37
2019-03-20T01:18:13.653Z,16.32
2019-03-20T01:18:44.901Z,16.23
2019-03-20T01:19:16.121Z,16.45
2019-03-20T01:19:47.309Z,15.45
2019-03-20T01:20:18.539Z,13.98
2019-03-20T01:20:49.742Z,13.68
2019-03-20T01:21:20.964Z,14.38
2019-03-20T01:21:52.206Z,14.63
2019-03-20T01:22:23.417Z,15.10
2019-03-20T01:22:54.619Z,13.90
2019-03-20T01:23:25.833Z,13.98
2019-03-20T01:23:57.051Z,13.53
2019-03-20T01:24:28.255Z,13.10
2019-03-20T01:24:59.454Z,14.15
2019-03-20T01:25:30.648Z,13.28
2019-03-20T01:26:01.865Z,12.25
2019-03-20T01:26:33.123Z,11.85
2019-03-20T01:27:04.351Z,13.08
2019-03-20T01:27:35.552Z,13.72
2019-03-20T01:28:06.765Z,13.13
2019-03-20T01:28:37.987Z,13.58
2019-03-20T01:29:09.192Z,14.33
2019-03-20T01:29:40.390Z,13.50
2019-03-20T01:30:11.590Z,13.32
2019-03-20T01:30:42.844Z,12.30
2019-03-20T01:31:14.057Z,12.98
2019-03-20T01:31:45.297Z,12.95
2019-03-20T01:32:16.531Z,13.85
2019-03-20T01:32:47.737Z,13.38
2019-03-20T01:33:18.987Z,11.53
2019-03-20T01:33:50.202Z,11.03
2019-03-20T01:34:21.406Z,10.10
2019-03-20T01:34:52.621Z,9.83
2019-03-20T01:35:24.326Z,10.03
2019-03-20T01:35:55.609Z,10.10
2019-03-20T01:36:27.006Z,10.60
2019-03-20T01:36:58.212Z,11.12
2019-03-20T01:37:29.418Z,11.40
2019-03-20T01:38:00.626Z,11.20
2019-03-20T01:38:31.896Z,10.45
2019-03-20T01:39:03.106Z,11.60
2019-03-20T01:39:34.329Z,11.83
2019-03-20T01:40:05.568Z,11.70
2019-03-20T01:40:36.763Z,11.63
2019-03-20T01:41:07.974Z,10.13
2019-03-20T01:41:39.225Z,10.50
2019-03-20T01:42:10.437Z,10.05
2019-03-20T01:42:41.734Z,10.25
2019-03-20T01:43:12.936Z,10.20
2019-03-20T01:43:44.217Z,9.30
2019-03-20T01:44:15.433Z,10.18
2019-03-20T01:44:46.643Z,11.05
2019-03-20T01:45:17.989Z,11.85
2019-03-20T01:45:49.185Z,10.90
2019-03-20T01:46:20.446Z,11.57
2019-03-20T01:46:51.617Z,10.95
2019-03-20T01:47:22.830Z,11.80
2019-03-20T01:47:54.024Z,10.05
2019-03-20T01:48:25.224Z,10.35
2019-03-20T01:48:56.441Z,10.80
2019-03-20T01:49:27.660Z,10.20
2019-03-20T01:49:58.865Z,9.58
2019-03-20T01:50:30.092Z,10.13
2019-03-20T01:51:01.299Z,10.23
2019-03-20T01:51:32.505Z,9.88
2019-03-20T01:52:03.731Z,9.73
2019-03-20T01:52:34.982Z,10.95
2019-03-20T01:53:06.195Z,11.15
2019-03-20T01:53:37.401Z,10.50
2019-03-20T01:54:08.615Z,11.10
2019-03-20T01:54:39.821Z,10.20
2019-03-20T01:55:11.033Z,9.95
2019-03-20T01:55:42.246Z,9.35
2019-03-20T01:56:13.460Z,10.13
2019-03-20T01:56:44.672Z,10.00
2019-03-20T01:57:15.873Z,9.65
2019-03-20T01:57:47.137Z,9.45
2019-03-20T01:58:18.344Z,9.75
2019-03-20T01:58:49.557Z,9.85
2019-03-20T01:59:20.780Z,10.30
2019-03-20T01:59:52.002Z,10.00
2019-03-20T02:00:23.235Z,10.03
2019-03-20T02:00:54.405Z,10.03
2019-03-20T02:01:25.613Z,10.75
2019-03-20T02:01:56.850Z,10.35
2019-03-20T02:02:28.077Z,10.80
2019-03-20T02:02:59.280Z,10.48
2019-03-20T02:03:30.529Z,10.60
2019-03-20T02:04:01.729Z,10.10
2019-03-20T02:04:32.940Z,9.90
2019-03-20T02:05:04.163Z,10.65
2019-03-20T02:05:36.590Z,9.33
2019-03-20T02:06:08.071Z,9.83
2019-03-20T02:06:39.336Z,10.32
2019-03-20T02:07:10.540Z,10.45
2019-03-20T02:07:41.770Z,10.72
2019-03-20T02:08:12.984Z,10.93
2019-03-20T02:08:44.195Z,10.90
2019-03-20T02:09:15.404Z,10.50
2019-03-20T02:09:46.614Z,10.13
2019-03-20T02:10:17.827Z,10.60
2019-03-20T02:10:49.027Z,10.78
2019-03-20T02:11:20.327Z,10.50
2019-03-20T02:11:51.581Z,11.03
2019-03-20T02:12:22.795Z,10.50
2019-03-20T02:12:53.992Z,11.60
2019-03-20T02:13:25.195Z,11.45
2019-03-20T02:13:56.406Z,10.63
2019-03-20T02:14:27.611Z,11.12
2019-03-20T02:14:58.816Z,11.10
2019-03-20T02:15:38.651Z,11.20
2019-03-20T02:16:02.946Z,11.30
2019-03-20T02:16:34.162Z,10.45
2019-03-20T02:17:05.418Z,11.53
2019-03-20T02:17:36.621Z,11.68
2019-03-20T02:18:07.827Z,11.55
2019-03-20T02:18:39.040Z,11.70
2019-03-20T02:19:10.242Z,11.65
2019-03-20T02:19:41.449Z,11.63
2019-03-20T02:20:12.656Z,11.70
2019-03-20T02:20:43.853Z,13.08
2019-03-20T02:21:15.066Z,12.90
2019-03-20T02:21:46.290Z,12.23
2019-03-20T02:22:17.520Z,13.10
2019-03-20T02:22:48.725Z,13.03
2019-03-20T02:23:19.926Z,12.93
2019-03-20T02:23:51.120Z,12.95
2019-03-20T02:24:22.333Z,12.47
2019-03-20T02:24:53.543Z,12.90
2019-03-20T02:25:24.762Z,12.73
2019-03-20T02:25:56.006Z,13.28
2019-03-20T02:26:27.222Z,13.03
2019-03-20T02:26:58.440Z,12.25
2019-03-20T02:27:29.639Z,11.70
2019-03-20T02:28:00.839Z,12.33
2019-03-20T02:28:32.050Z,12.63
2019-03-20T02:29:03.282Z,12.43
2019-03-20T02:29:34.471Z,11.90
2019-03-20T02:30:05.671Z,12.10
2019-03-20T02:30:36.880Z,12.05
2019-03-20T02:31:08.189Z,11.80
2019-03-20T02:31:39.389Z,11.95
2019-03-20T02:32:10.601Z,11.48
2019-03-20T02:32:41.816Z,11.73
2019-03-20T02:33:13.018Z,11.95
2019-03-20T02:33:44.280Z,11.28
2019-03-20T02:34:15.487Z,12.20
2019-03-20T02:34:46.690Z,11.68
2019-03-20T02:35:17.910Z,11.55
2019-03-20T02:35:51.801Z,12.73
2019-03-20T02:36:22.118Z,12.47
2019-03-20T02:36:53.319Z,13.13
2019-03-20T02:37:24.527Z,12.95
2019-03-20T02:37:55.725Z,12.33
2019-03-20T02:38:26.969Z,13.00
2019-03-20T02:38:58.184Z,13.22
2019-03-20T02:39:29.386Z,13.83
2019-03-20T02:40:00.605Z,14.28
2019-03-20T02:40:31.828Z,13.90
2019-03-20T02:41:03.030Z,14.35
2019-03-20T02:41:34.279Z,14.78
2019-03-20T02:42:05.487Z,14.85
2019-03-20T02:42:36.691Z,13.43
2019-03-20T02:43:07.915Z,13.98
2019-03-20T02:43:39.112Z,14.68
2019-03-20T02:44:10.333Z,13.93
2019-03-20T02:44:41.526Z,13.05
2019-03-20T02:45:12.767Z,13.83
2019-03-20T02:45:43.960Z,13.50
2019-03-20T02:46:15.241Z,13.32
2019-03-20T02:46:46.465Z,12.50
2019-03-20T02:47:17.666Z,13.55
2019-03-20T02:47:48.884Z,12.68
2019-03-20T02:48:20.079Z,13.53
2019-03-20T02:48:51.291Z,13.72
2019-03-20T02:49:22.540Z,13.88
2019-03-20T02:49:53.764Z,14.20
2019-03-20T02:50:25.006Z,14.07
2019-03-20T02:50:56.233Z,14.65
2019-03-20T02:51:27.454Z,14.35
2019-03-20T02:51:58.668Z,14.23
2019-03-20T02:52:29.884Z,13.15
2019-03-20T02:53:00.904Z,15.38
2019-03-20T02:53:32.138Z,14.10
2019-03-20T02:54:03.305Z,13.98
2019-03-20T02:54:34.561Z,13.68
2019-03-20T02:55:05.767Z,13.58
2019-03-20T02:55:36.981Z,13.72
2019-03-20T02:56:08.213Z,14.07
2019-03-20T02:56:39.418Z,14.30
2019-03-20T02:57:10.631Z,14.33
2019-03-20T02:57:41.858Z,14.70
2019-03-20T02:58:13.050Z,14.35
2019-03-20T02:58:44.276Z,14.78
2019-03-20T02:59:15.481Z,16.05
2019-03-20T02:59:46.715Z,14.87
2019-03-20T03:00:17.956Z,15.32
2019-03-20T03:00:49.141Z,16.80
2019-03-20T03:01:20.363Z,18.73
2019-03-20T03:01:51.573Z,19.75
2019-03-20T03:02:22.761Z,18.87
2019-03-20T03:02:53.982Z,18.42
2019-03-20T03:03:25.182Z,19.12
2019-03-20T03:03:56.397Z,18.40
2019-03-20T03:04:27.603Z,19.57
2019-03-20T03:04:58.819Z,19.15
2019-03-20T03:05:30.011Z,19.48
2019-03-20T03:06:07.303Z,20.20
2019-03-20T03:06:34.195Z,20.85
2019-03-20T03:07:05.388Z,24.82
2019-03-20T03:07:36.610Z,22.35
2019-03-20T03:08:07.826Z,22.55
2019-03-20T03:08:39.087Z,25.00
2019-03-20T03:09:10.301Z,24.50
2019-03-20T03:09:41.487Z,26.30
2019-03-20T03:10:12.701Z,28.07
2019-03-20T03:10:43.913Z,28.42
2019-03-20T03:11:15.119Z,28.65
2019-03-20T03:11:46.361Z,27.77
2019-03-20T03:12:17.563Z,26.35
2019-03-20T03:12:48.762Z,27.87
2019-03-20T03:13:19.984Z,29.60
2019-03-20T03:13:51.185Z,29.52
2019-03-20T03:14:22.380Z,28.17
2019-03-20T03:14:53.586Z,28.38
2019-03-20T03:15:24.817Z,27.10
2019-03-20T03:15:56.013Z,27.80
2019-03-20T03:16:27.212Z,25.40
2019-03-20T03:16:58.462Z,27.30
2019-03-20T03:17:29.687Z,27.05
2019-03-20T03:18:00.900Z,27.55
2019-03-20T03:18:32.110Z,29.67
2019-03-20T03:19:03.325Z,28.05
2019-03-20T03:19:34.529Z,28.87
2019-03-20T03:20:05.744Z,28.23
2019-03-20T03:20:37.007Z,29.02
2019-03-20T03:21:08.220Z,29.50
2019-03-20T03:21:39.427Z,29.75
2019-03-20T03:22:10.649Z,30.02
2019-03-20T03:22:41.860Z,28.20
2019-03-20T03:23:13.050Z,28.65
2019-03-20T03:23:44.362Z,28.90
2019-03-20T03:24:15.568Z,28.67
2019-03-20T03:24:46.934Z,29.20
2019-03-20T03:25:18.166Z,30.45
2019-03-20T03:25:50.307Z,28.98
2019-03-20T03:26:21.666Z,27.50
2019-03-20T03:26:52.880Z,25.52
2019-03-20T03:27:24.098Z,26.07
2019-03-20T03:27:55.302Z,25.32
2019-03-20T03:28:26.494Z,27.30
2019-03-20T03:28:57.729Z,26.75
2019-03-20T03:29:28.945Z,25.35
2019-03-20T03:30:00.255Z,22.40
2019-03-20T03:30:31.915Z,23.98
2019-03-20T03:31:03.136Z,23.32
2019-03-20T03:31:34.429Z,25.40
2019-03-20T03:32:05.637Z,27.42
2019-03-20T03:32:36.844Z,27.85
2019-03-20T03:33:08.042Z,26.23
2019-03-20T03:33:39.266Z,26.30
2019-03-20T03:34:10.548Z,26.17
2019-03-20T03:34:41.719Z,28.12
2019-03-20T03:35:16.978Z,26.15
2019-03-20T03:35:45.861Z,26.75
2019-03-20T03:36:21.452Z,27.70
2019-03-20T03:36:50.018Z,25.32
2019-03-20T03:37:21.206Z,26.45
2019-03-20T03:37:52.411Z,27.35
2019-03-20T03:38:23.627Z,27.37
2019-03-20T03:38:54.815Z,28.77
2019-03-20T03:39:26.071Z,27.75
2019-03-20T03:39:57.278Z,26.50
2019-03-20T03:40:28.494Z,23.27
2019-03-20T03:40:59.707Z,24.05
2019-03-20T03:41:30.915Z,25.40
2019-03-20T03:42:02.125Z,24.90
2019-03-20T03:42:33.361Z,25.62
2019-03-20T03:43:04.584Z,25.10
2019-03-20T03:43:35.790Z,21.93
2019-03-20T03:44:06.993Z,24.47
2019-03-20T03:44:38.234Z,26.90
2019-03-20T03:45:09.446Z,23.07
2019-03-20T03:45:40.652Z,23.27
2019-03-20T03:46:11.888Z,26.05
2019-03-20T03:46:43.094Z,26.12
2019-03-20T03:47:14.309Z,22.58
2019-03-20T03:47:45.521Z,24.43
2019-03-20T03:48:16.723Z,23.22
2019-03-20T03:48:47.938Z,20.30
2019-03-20T03:49:19.170Z,19.27
2019-03-20T03:49:50.470Z,18.80
2019-03-20T03:50:21.685Z,19.55
2019-03-20T03:50:52.891Z,18.55
2019-03-20T03:51:24.144Z,18.17
2019-03-20T03:51:55.357Z,18.07
2019-03-20T03:52:26.569Z,18.73
2019-03-20T03:52:57.783Z,19.23
2019-03-20T03:53:28.974Z,19.45
2019-03-20T03:54:00.209Z,18.02
2019-03-20T03:54:31.396Z,19.12
2019-03-20T03:55:02.615Z,18.40
2019-03-20T03:55:33.874Z,19.55
2019-03-20T03:56:05.088Z,19.37
2019-03-20T03:56:36.291Z,20.50
2019-03-20T03:57:07.497Z,20.62
2019-03-20T03:57:38.699Z,21.02
2019-03-20T03:58:09.920Z,20.68
2019-03-20T03:58:41.121Z,20.05
2019-03-20T03:59:12.328Z,20.35
2019-03-20T03:59:43.538Z,20.17
2019-03-20T04:00:14.760Z,19.60
2019-03-20T04:00:46.040Z,20.08
2019-03-20T04:01:17.250Z,18.75
2019-03-20T04:01:48.454Z,20.55
2019-03-20T04:02:19.673Z,19.55
2019-03-20T04:02:50.886Z,20.45
2019-03-20T04:03:22.206Z,20.32
2019-03-20T04:03:53.394Z,20.27
2019-03-20T04:04:24.596Z,19.98
2019-03-20T04:04:55.809Z,20.62
2019-03-20T04:05:27.071Z,19.65
2019-03-20T04:05:58.282Z,21.27
2019-03-20T04:06:35.655Z,20.55
2019-03-20T04:07:02.426Z,22.13
2019-03-20T04:07:33.612Z,22.42
2019-03-20T04:08:04.828Z,22.52
2019-03-20T04:08:36.023Z,22.17
2019-03-20T04:09:07.239Z,20.45
2019-03-20T04:09:38.451Z,20.88
2019-03-20T04:10:09.649Z,20.72
2019-03-20T04:10:40.978Z,20.68
2019-03-20T04:11:12.186Z,20.48
2019-03-20T04:11:43.394Z,20.52
2019-03-20T04:12:14.593Z,20.97
2019-03-20T04:12:45.910Z,21.15
2019-03-20T04:13:17.096Z,21.12
2019-03-20T04:13:48.308Z,21.17
2019-03-20T04:14:19.542Z,21.77
2019-03-20T04:14:50.773Z,23.30
2019-03-20T04:15:21.973Z,22.27
2019-03-20T04:15:53.173Z,21.70
2019-03-20T04:16:24.385Z,21.87
2019-03-20T04:16:55.598Z,21.85
2019-03-20T04:17:26.832Z,20.88
2019-03-20T04:17:58.044Z,20.95
2019-03-20T04:18:29.246Z,19.57
2019-03-20T04:19:00.462Z,21.17
2019-03-20T04:19:31.673Z,20.77
2019-03-20T04:20:02.879Z,21.10
2019-03-20T04:20:34.211Z,21.52
2019-03-20T04:21:05.435Z,20.80
2019-03-20T04:21:36.671Z,21.12
2019-03-20T04:22:07.882Z,21.33
2019-03-20T04:22:39.097Z,21.48
2019-03-20T04:23:10.317Z,20.37
2019-03-20T04:23:41.525Z,22.05
2019-03-20T04:24:12.738Z,20.32
2019-03-20T04:24:43.937Z,20.02
2019-03-20T04:25:15.144Z,20.77
2019-03-20T04:25:46.349Z,19.70
2019-03-20T04:26:17.569Z,20.00
2019-03-20T04:26:48.815Z,19.85
2019-03-20T04:27:20.025Z,20.10
2019-03-20T04:27:51.229Z,19.40
2019-03-20T04:28:22.541Z,19.12
2019-03-20T04:28:53.740Z,19.82
2019-03-20T04:29:25.802Z,19.45
2019-03-20T04:29:57.007Z,19.87
2019-03-20T04:30:28.225Z,19.73
2019-03-20T04:30:59.436Z,20.95
2019-03-20T04:31:30.654Z,21.15
2019-03-20T04:32:01.857Z,20.32
2019-03-20T04:32:33.086Z,20.37
2019-03-20T04:33:04.361Z,20.85
2019-03-20T04:33:35.585Z,19.80
2019-03-20T04:34:06.796Z,20.55
2019-03-20T04:34:37.991Z,20.65
2019-03-20T04:35:09.200Z,20.72
2019-03-20T04:35:40.400Z,20.27
2019-03-20T04:36:11.617Z,21.68
2019-03-20T04:36:47.733Z,21.57
2019-03-20T04:37:15.757Z,20.32
2019-03-20T04:37:47.005Z,22.07
2019-03-20T04:38:18.223Z,19.65
2019-03-20T04:38:49.449Z,20.52
2019-03-20T04:39:20.649Z,20.70
2019-03-20T04:39:51.872Z,20.77
2019-03-20T04:40:23.158Z,21.07
2019-03-20T04:40:54.363Z,21.48
2019-03-20T04:41:25.578Z,20.65
2019-03-20T04:41:56.784Z,21.15
2019-03-20T04:42:28.016Z,20.62
2019-03-20T04:42:59.251Z,21.70
2019-03-20T04:43:30.500Z,21.17
2019-03-20T04:44:01.706Z,20.15
2019-03-20T04:44:33.236Z,21.17
2019-03-20T04:45:04.431Z,19.70
2019-03-20T04:45:35.641Z,20.75
2019-03-20T04:46:06.847Z,19.32
2019-03-20T04:46:38.045Z,18.37
2019-03-20T04:47:09.258Z,19.17
2019-03-20T04:47:40.469Z,19.17
2019-03-20T04:48:11.683Z,19.27
2019-03-20T04:48:42.930Z,18.90
2019-03-20T04:49:14.141Z,19.70
2019-03-20T04:49:45.393Z,19.77
2019-03-20T04:50:16.600Z,19.73
2019-03-20T04:50:47.822Z,19.70
2019-03-20T04:51:19.020Z,19.60
2019-03-20T04:51:50.225Z,20.50
2019-03-20T04:52:21.437Z,19.85
2019-03-20T04:52:52.654Z,19.45
2019-03-20T04:53:23.842Z,19.95
2019-03-20T04:53:55.051Z,19.82
2019-03-20T04:54:26.264Z,19.12
2019-03-20T04:54:57.505Z,19.50
2019-03-20T04:55:28.750Z,19.40
2019-03-20T04:55:59.953Z,20.57
2019-03-20T04:56:31.168Z,20.05
2019-03-20T04:57:02.372Z,19.57
2019-03-20T04:57:33.580Z,19.82
2019-03-20T04:58:04.798Z,19.55
2019-03-20T04:58:36.004Z,19.77
2019-03-20T04:59:07.220Z,19.50
2019-03-20T04:59:38.448Z,20.05
2019-03-20T05:00:09.696Z,20.23
2019-03-20T05:00:40.960Z,19.82
2019-03-20T05:01:12.169Z,19.55
2019-03-20T05:01:43.375Z,18.92
2019-03-20T05:02:14.591Z,20.37
2019-03-20T05:02:45.790Z,20.27
2019-03-20T05:03:16.991Z,19.40
2019-03-20T05:03:48.206Z,20.25
2019-03-20T05:04:19.421Z,20.30
2019-03-20T05:04:50.628Z,20.65
2019-03-20T05:05:21.847Z,19.77
2019-03-20T05:05:53.085Z,21.25
2019-03-20T05:06:24.296Z,21.45
2019-03-20T05:06:59.043Z,21.87
2019-03-20T05:07:28.448Z,20.55
2019-03-20T05:07:59.661Z,21.35
2019-03-20T05:08:30.880Z,21.60
2019-03-20T05:09:02.073Z,22.27
2019-03-20T05:09:33.285Z,21.23
2019-03-20T05:10:04.507Z,21.30
2019-03-20T05:10:35.773Z,21.85
2019-03-20T05:11:06.987Z,22.32
2019-03-20T05:11:38.198Z,22.45
2019-03-20T05:12:09.413Z,22.17
2019-03-20T05:12:40.636Z,22.85
2019-03-20T05:13:11.855Z,22.22
2019-03-20T05:13:43.068Z,20.72
2019-03-20T05:14:14.269Z,20.72
2019-03-20T05:14:45.483Z,21.73
2019-03-20T05:15:16.695Z,22.75
2019-03-20T05:15:47.945Z,22.40
2019-03-20T05:16:19.158Z,21.50
2019-03-20T05:16:50.391Z,21.25
2019-03-20T05:17:21.594Z,21.50
2019-03-20T05:17:52.802Z,21.10
2019-03-20T05:18:24.027Z,21.42
2019-03-20T05:18:55.233Z,20.55
2019-03-20T05:19:26.453Z,19.65
2019-03-20T05:19:57.677Z,19.77
2019-03-20T05:20:28.898Z,20.60
2019-03-20T05:21:00.121Z,20.43
2019-03-20T05:21:31.334Z,20.62
2019-03-20T05:22:02.549Z,20.32
2019-03-20T05:22:33.746Z,19.52
2019-03-20T05:23:04.963Z,19.85
2019-03-20T05:23:36.199Z,18.67
2019-03-20T05:24:07.397Z,18.92
2019-03-20T05:24:38.613Z,19.15
2019-03-20T05:25:09.879Z,19.37
2019-03-20T05:25:41.107Z,19.25
2019-03-20T05:26:12.766Z,19.05
2019-03-20T05:26:43.999Z,17.80
2019-03-20T05:27:15.226Z,18.25
2019-03-20T05:27:46.452Z,16.80
2019-03-20T05:28:17.695Z,17.37
2019-03-20T05:28:48.905Z,17.30
2019-03-20T05:29:20.117Z,18.37
2019-03-20T05:29:51.324Z,18.57
2019-03-20T05:30:22.580Z,18.57
2019-03-20T05:30:53.803Z,18.30
2019-03-20T05:31:25.004Z,19.00
2019-03-20T05:31:56.215Z,19.00
2019-03-20T05:32:27.430Z,17.98
2019-03-20T05:32:58.638Z,18.15
2019-03-20T05:33:29.897Z,17.25
2019-03-20T05:34:01.116Z,17.50
2019-03-20T05:34:32.326Z,18.05
2019-03-20T05:35:03.576Z,18.27
2019-03-20T05:35:34.808Z,18.30
2019-03-20T05:36:06.018Z,17.70
2019-03-20T05:36:37.229Z,17.42
2019-03-20T05:37:10.745Z,18.52
2019-03-20T05:37:41.374Z,17.87
2019-03-20T05:38:12.580Z,18.15
2019-03-20T05:38:43.838Z,19.15
2019-03-20T05:39:15.938Z,18.20
2019-03-20T05:39:47.345Z,18.67
2019-03-20T05:40:18.556Z,18.62
2019-03-20T05:40:49.759Z,16.95
2019-03-20T05:41:20.975Z,18.55
2019-03-20T05:41:52.186Z,17.75
2019-03-20T05:42:23.396Z,18.42
2019-03-20T05:42:54.630Z,17.80
2019-03-20T05:43:25.841Z,18.37
2019-03-20T05:43:57.039Z,18.32
2019-03-20T05:44:28.255Z,18.85
2019-03-20T05:44:59.491Z,19.82
2019-03-20T05:45:30.768Z,20.02
2019-03-20T05:46:01.988Z,19.17
2019-03-20T05:46:33.197Z,19.30
2019-03-20T05:47:04.395Z,19.50
2019-03-20T05:47:35.591Z,19.00
2019-03-20T05:48:06.847Z,18.80
2019-03-20T05:48:38.054Z,19.05
2019-03-20T05:49:09.266Z,18.85
2019-03-20T05:49:40.466Z,19.65
2019-03-20T05:50:11.699Z,19.40
2019-03-20T05:50:42.981Z,17.85
2019-03-20T05:51:14.198Z,17.40
2019-03-20T05:51:45.401Z,17.12
2019-03-20T05:52:16.661Z,16.77
2019-03-20T05:52:47.878Z,17.67
2019-03-20T05:53:19.095Z,17.15
2019-03-20T05:53:50.304Z,16.62
2019-03-20T05:54:21.508Z,17.40
2019-03-20T05:54:52.730Z,16.60
2019-03-20T05:55:23.944Z,15.43
2019-03-20T05:55:55.199Z,15.65
2019-03-20T05:56:26.415Z,15.10
2019-03-20T05:56:57.624Z,15.48
2019-03-20T05:57:28.850Z,15.65
2019-03-20T05:58:00.069Z,15.58
2019-03-20T05:58:31.248Z,16.30
2019-03-20T05:59:02.449Z,15.32
2019-03-20T05:59:33.664Z,15.32
2019-03-20T06:00:05.218Z,15.13
2019-03-20T06:00:36.408Z,15.30
2019-03-20T06:01:07.678Z,15.50
2019-03-20T06:01:38.941Z,13.85
2019-03-20T06:02:10.147Z,15.95
2019-03-20T06:02:41.365Z,15.83
2019-03-20T06:03:12.582Z,15.65
2019-03-20T06:03:43.785Z,14.90
2019-03-20T06:04:14.994Z,14.30
2019-03-20T06:04:46.204Z,14.85
2019-03-20T06:05:17.423Z,14.43
2019-03-20T06:05:48.663Z,14.90
2019-03-20T06:06:19.886Z,15.13
2019-03-20T06:06:51.109Z,14.70
2019-03-20T06:07:22.371Z,15.28
2019-03-20T06:07:53.583Z,15.28
2019-03-20T06:08:24.827Z,14.30
2019-03-20T06:08:56.029Z,14.80
2019-03-20T06:09:27.234Z,14.95
2019-03-20T06:09:58.450Z,14.73
2019-03-20T06:10:29.654Z,14.53
2019-03-20T06:11:00.881Z,14.33
2019-03-20T06:11:32.087Z,14.93
2019-03-20T06:12:03.315Z,13.98
2019-03-20T06:12:34.568Z,13.78
2019-03-20T06:13:05.792Z,12.75
2019-03-20T06:13:37.963Z,14.07
2019-03-20T06:14:09.167Z,13.45
2019-03-20T06:14:40.382Z,13.98
2019-03-20T06:15:11.652Z,14.95
2019-03-20T06:15:42.852Z,13.83
2019-03-20T06:16:15.153Z,14.20
2019-03-20T06:16:46.353Z,13.00
2019-03-20T06:17:17.567Z,13.70
2019-03-20T06:17:48.831Z,13.90
2019-03-20T06:18:20.085Z,13.03
2019-03-20T06:18:51.297Z,12.93
2019-03-20T06:19:22.505Z,13.10
2019-03-20T06:19:53.730Z,14.00
2019-03-20T06:20:24.963Z,13.68
2019-03-20T06:20:56.183Z,13.85
2019-03-20T06:21:27.408Z,13.72
2019-03-20T06:21:58.619Z,13.50
2019-03-20T06:22:29.843Z,12.47
2019-03-20T06:23:01.064Z,13.70
2019-03-20T06:23:32.310Z,13.10
2019-03-20T06:24:03.560Z,12.30
2019-03-20T06:24:34.743Z,12.25
2019-03-20T06:25:05.959Z,13.08
2019-03-20T06:25:37.212Z,12.58
2019-03-20T06:26:08.430Z,12.80
2019-03-20T06:26:39.639Z,13.30
2019-03-20T06:27:10.853Z,13.08
2019-03-20T06:27:42.071Z,12.18
2019-03-20T06:28:13.287Z,13.20
2019-03-20T06:28:44.485Z,14.58
2019-03-20T06:29:15.683Z,12.63
2019-03-20T06:29:46.903Z,12.30
2019-03-20T06:30:19.095Z,12.85
2019-03-20T06:30:50.324Z,12.65
2019-03-20T06:31:21.571Z,13.28
2019-03-20T06:31:52.781Z,16.25
2019-03-20T06:32:24.014Z,13.68
2019-03-20T06:32:55.224Z,16.17
2019-03-20T06:33:26.439Z,17.25
2019-03-20T06:33:57.649Z,13.53
2019-03-20T06:34:28.852Z,14.33
2019-03-20T06:35:00.065Z,13.58
2019-03-20T06:35:31.340Z,13.32
2019-03-20T06:36:02.564Z,13.70
2019-03-20T06:36:33.772Z,13.70
2019-03-20T06:37:04.990Z,12.65
2019-03-20T06:37:36.210Z,18.02
2019-03-20T06:38:07.417Z,14.45
2019-03-20T06:38:38.633Z,13.13
2019-03-20T06:39:09.868Z,14.83
2019-03-20T06:39:41.080Z,15.25
2019-03-20T06:40:12.294Z,14.33
2019-03-20T06:40:43.554Z,12.45
2019-03-20T06:41:14.774Z,13.90
2019-03-20T06:41:45.983Z,14.28
2019-03-20T06:42:17.180Z,13.30
2019-03-20T06:42:48.454Z,13.43